createdAt,value
2019-02-22T00:00:52.346Z,1021.42
2019-02-22T00:01:52.335Z,1021.47
2019-02-22T00:02:52.357Z,1021.49
2019-02-22T00:03:52.309Z,1021.46
2019-02-22T00:04:52.323Z,1021.48
2019-02-22T00:05:52.285Z,1021.53
2019-02-22T00:06:52.290Z,1021.51
2019-02-22T00:07:52.271Z,1021.45
2019-02-22T00:08:52.298Z,1021.51
2019-02-22T00:09:52.251Z,1021.57
2019-02-22T00:10:52.246Z,1021.53
2019-02-22T00:11:52.262Z,1021.55
2019-02-22T00:12:52.241Z,1021.55
2019-02-22T00:13:52.207Z,1021.58
2019-02-22T00:14:52.241Z,1021.59
2019-02-22T00:15:52.190Z,1021.61
2019-02-22T00:16:52.182Z,1021.61
2019-02-22T00:17:52.171Z,1021.61
2019-02-22T00:18:52.187Z,1021.60
2019-02-22T00:19:52.150Z,1021.67
2019-02-22T00:20:52.178Z,1021.62
2019-02-22T00:22:02.550Z,1021.68
2019-02-22T00:22:52.115Z,1021.67
2019-02-22T00:23:52.108Z,1021.65
2019-02-22T00:24:52.102Z,1021.73
2019-02-22T00:25:52.089Z,1021.78
2019-02-22T00:26:52.130Z,1021.76
2019-02-22T00:27:52.067Z,1021.84
2019-02-22T00:28:52.054Z,1021.81
2019-02-22T00:29:52.074Z,1021.76
2019-02-22T00:30:52.041Z,1021.75
2019-02-22T00:31:52.045Z,1021.85
2019-02-22T00:32:52.037Z,1021.82
2019-02-22T00:33:52.018Z,1021.82
2019-02-22T00:34:52.127Z,1021.85
2019-02-22T00:35:52.151Z,1021.82
2019-02-22T00:36:52.164Z,1021.91
2019-02-22T00:37:51.997Z,1021.92
2019-02-22T00:38:51.957Z,1021.95
2019-02-22T00:39:51.976Z,1021.93
2019-02-22T00:40:51.939Z,1021.90
2019-02-22T00:41:51.926Z,1021.91
2019-02-22T00:42:51.943Z,1021.91
2019-02-22T00:43:51.982Z,1021.93
2019-02-22T00:44:51.901Z,1021.96
2019-02-22T00:45:51.896Z,1021.95
2019-02-22T00:46:51.876Z,1022.01
2019-02-22T00:47:51.891Z,1022.04
2019-02-22T00:48:51.857Z,1022.13
2019-02-22T00:49:51.891Z,1022.11
2019-02-22T00:50:51.841Z,1022.10
2019-02-22T00:51:51.829Z,1022.11
2019-02-22T00:53:02.277Z,1022.19
2019-02-22T00:53:51.847Z,1022.22
2019-02-22T00:54:51.825Z,1022.19
2019-02-22T00:55:51.833Z,1022.25
2019-02-22T00:56:51.778Z,1022.27
2019-02-22T00:57:51.772Z,1022.32
2019-02-22T00:58:51.762Z,1022.30
2019-02-22T00:59:51.753Z,1022.36
2019-02-22T01:00:51.748Z,1022.31
2019-02-22T01:01:51.767Z,1022.30
2019-02-22T01:02:51.715Z,1022.38
2019-02-22T01:03:51.714Z,1022.40
2019-02-22T01:04:51.698Z,1022.44
2019-02-22T01:05:51.701Z,1022.40
2019-02-22T01:06:51.680Z,1022.42
2019-02-22T01:07:51.736Z,1022.49
2019-02-22T01:08:51.664Z,1022.44
2019-02-22T01:09:51.653Z,1022.51
2019-02-22T01:10:51.635Z,1022.52
2019-02-22T01:11:51.643Z,1022.52
2019-02-22T01:12:51.619Z,1022.49
2019-02-22T01:13:51.657Z,1022.55
2019-02-22T01:14:51.609Z,1022.61
2019-02-22T01:15:51.594Z,1022.58
2019-02-22T01:16:51.574Z,1022.58
2019-02-22T01:17:51.576Z,1022.53
2019-02-22T01:18:51.562Z,1022.57
2019-02-22T01:19:51.582Z,1022.59
2019-02-22T01:20:54.342Z,1022.58
2019-02-22T01:21:51.525Z,1022.60
2019-02-22T01:22:51.528Z,1022.57
2019-02-22T01:24:01.597Z,1022.62
2019-02-22T01:24:51.497Z,1022.62
2019-02-22T01:25:51.531Z,1022.62
2019-02-22T01:26:51.483Z,1022.60
2019-02-22T01:27:51.473Z,1022.59
2019-02-22T01:28:51.471Z,1022.63
2019-02-22T01:29:51.461Z,1022.61
2019-02-22T01:30:51.437Z,1022.61
2019-02-22T01:31:51.561Z,1022.64
2019-02-22T01:32:51.609Z,1022.65
2019-02-22T01:33:54.005Z,1022.69
2019-02-22T01:34:51.421Z,1022.69
2019-02-22T01:35:51.390Z,1022.74
2019-02-22T01:36:51.398Z,1022.69
2019-02-22T01:37:51.409Z,1022.75
2019-02-22T01:38:51.365Z,1022.70
2019-02-22T01:39:51.359Z,1022.73
2019-02-22T01:40:51.340Z,1022.72
2019-02-22T01:41:51.985Z,1022.71
2019-02-22T01:42:51.321Z,1022.70
2019-02-22T01:43:51.502Z,1022.70
2019-02-22T01:44:51.299Z,1022.68
2019-02-22T01:45:51.283Z,1022.71
2019-02-22T01:46:51.277Z,1022.70
2019-02-22T01:47:51.265Z,1022.78
2019-02-22T01:48:51.262Z,1022.69
2019-02-22T01:49:51.306Z,1022.80
2019-02-22T01:50:51.233Z,1022.83
2019-02-22T01:51:51.233Z,1022.85
2019-02-22T01:52:51.221Z,1022.86
2019-02-22T01:53:53.879Z,1022.87
2019-02-22T01:55:01.546Z,1022.91
2019-02-22T01:55:51.188Z,1022.92
2019-02-22T01:56:51.176Z,1022.95
2019-02-22T01:57:51.171Z,1022.96
2019-02-22T01:58:51.162Z,1023.01
2019-02-22T01:59:51.177Z,1023.01
2019-02-22T02:00:51.174Z,1023.04
2019-02-22T02:01:51.128Z,1023.06
2019-02-22T02:02:51.145Z,1023.10
2019-02-22T02:03:51.108Z,1023.10
2019-02-22T02:04:51.101Z,1023.18
2019-02-22T02:05:51.105Z,1023.16
2019-02-22T02:06:51.101Z,1023.22
2019-02-22T02:07:51.062Z,1023.21
2019-02-22T02:08:51.062Z,1023.20
2019-02-22T02:09:51.045Z,1023.22
2019-02-22T02:10:54.107Z,1023.24
2019-02-22T02:11:51.025Z,1023.29
2019-02-22T02:12:51.061Z,1023.30
2019-02-22T02:13:51.003Z,1023.37
2019-02-22T02:14:50.996Z,1023.37
2019-02-22T02:15:50.995Z,1023.41
2019-02-22T02:16:50.995Z,1023.42
2019-02-22T02:17:50.966Z,1023.41
2019-02-22T02:18:50.999Z,1023.39
2019-02-22T02:19:50.945Z,1023.42
2019-02-22T02:20:50.960Z,1023.39
2019-02-22T02:21:50.930Z,1023.46
2019-02-22T02:22:50.997Z,1023.46
2019-02-22T02:23:50.906Z,1023.52
2019-02-22T02:24:50.935Z,1023.53
2019-02-22T02:26:02.053Z,1023.59
2019-02-22T02:26:50.932Z,1023.55
2019-02-22T02:27:50.870Z,1023.58
2019-02-22T02:28:51.744Z,1023.65
2019-02-22T02:29:50.864Z,1023.68
2019-02-22T02:30:51.052Z,1023.75
2019-02-22T02:31:50.824Z,1023.70
2019-02-22T02:32:50.821Z,1023.69
2019-02-22T02:33:50.829Z,1023.75
2019-02-22T02:34:50.801Z,1023.74
2019-02-22T02:35:50.790Z,1023.73
2019-02-22T02:36:50.794Z,1023.78
2019-02-22T02:37:50.769Z,1023.76
2019-02-22T02:38:50.798Z,1023.71
2019-02-22T02:39:50.750Z,1023.82
2019-02-22T02:40:50.739Z,1023.85
2019-02-22T02:41:50.725Z,1023.84
2019-02-22T02:42:50.764Z,1023.92
2019-02-22T02:43:50.702Z,1023.91
2019-02-22T02:44:50.723Z,1023.90
2019-02-22T02:45:50.688Z,1023.91
2019-02-22T02:46:50.672Z,1023.95
2019-02-22T02:47:51.540Z,1023.97
2019-02-22T02:48:50.677Z,1023.91
2019-02-22T02:49:50.651Z,1024.03
2019-02-22T02:50:50.641Z,1024.02
2019-02-22T02:51:50.647Z,1024.06
2019-02-22T02:52:50.628Z,1024.06
2019-02-22T02:53:50.605Z,1024.04
2019-02-22T02:54:50.630Z,1024.04
2019-02-22T02:55:50.581Z,1023.99
2019-02-22T02:57:01.838Z,1024.01
2019-02-22T02:57:50.570Z,1024.02
2019-02-22T02:58:50.554Z,1024.03
2019-02-22T02:59:50.557Z,1024.07
2019-02-22T03:00:50.578Z,1024.08
2019-02-22T03:01:50.559Z,1024.10
2019-02-22T03:02:50.517Z,1024.13
2019-02-22T03:03:50.510Z,1024.17
2019-02-22T03:04:50.517Z,1024.20
2019-02-22T03:05:50.490Z,1024.18
2019-02-22T03:06:50.602Z,1024.21
2019-02-22T03:07:50.465Z,1024.22
2019-02-22T03:08:50.461Z,1024.25
2019-02-22T03:09:50.464Z,1024.33
2019-02-22T03:10:50.436Z,1024.34
2019-02-22T03:11:50.428Z,1024.29
2019-02-22T03:12:50.581Z,1024.31
2019-02-22T03:13:50.403Z,1024.30
2019-02-22T03:14:50.400Z,1024.35
2019-02-22T03:15:50.384Z,1024.38
2019-02-22T03:16:50.400Z,1024.40
2019-02-22T03:17:50.370Z,1024.42
2019-02-22T03:18:50.390Z,1024.45
2019-02-22T03:19:50.343Z,1024.43
2019-02-22T03:20:50.343Z,1024.47
2019-02-22T03:21:50.327Z,1024.46
2019-02-22T03:22:50.324Z,1024.46
2019-02-22T03:23:50.311Z,1024.46
2019-02-22T03:24:53.608Z,1024.47
2019-02-22T03:25:50.292Z,1024.51
2019-02-22T03:26:50.280Z,1024.44
2019-02-22T03:28:00.905Z,1024.45
2019-02-22T03:28:50.256Z,1024.45
2019-02-22T03:29:50.242Z,1024.46
2019-02-22T03:30:50.445Z,1024.53
2019-02-22T03:31:50.240Z,1024.51
2019-02-22T03:32:50.217Z,1024.55
2019-02-22T03:33:50.237Z,1024.55
2019-02-22T03:34:50.199Z,1024.59
2019-02-22T03:35:50.185Z,1024.54
2019-02-22T03:36:50.240Z,1024.55
2019-02-22T03:37:50.168Z,1024.57
2019-02-22T03:38:50.157Z,1024.60
2019-02-22T03:39:50.146Z,1024.54
2019-02-22T03:40:50.131Z,1024.57
2019-02-22T03:41:50.143Z,1024.60
2019-02-22T03:42:50.151Z,1024.56
2019-02-22T03:43:50.107Z,1024.54
2019-02-22T03:44:50.093Z,1024.61
2019-02-22T03:45:50.089Z,1024.59
2019-02-22T03:46:50.071Z,1024.61
2019-02-22T03:47:50.081Z,1024.64
2019-02-22T03:48:50.088Z,1024.69
2019-02-22T03:49:50.041Z,1024.68
2019-02-22T03:50:50.033Z,1024.66
2019-02-22T03:51:50.038Z,1024.69
2019-02-22T03:52:50.019Z,1024.71
2019-02-22T03:53:50.147Z,1024.75
2019-02-22T03:54:50.007Z,1024.71
2019-02-22T03:55:49.991Z,1024.73
2019-02-22T03:56:49.982Z,1024.66
2019-02-22T03:57:49.967Z,1024.73
2019-02-22T03:59:00.650Z,1024.70
2019-02-22T03:59:51.151Z,1024.72
2019-02-22T04:00:49.936Z,1024.69
2019-02-22T04:01:49.930Z,1024.66
2019-02-22T04:02:49.925Z,1024.69
2019-02-22T04:03:49.956Z,1024.69
2019-02-22T04:04:49.920Z,1024.66
2019-02-22T04:05:49.891Z,1024.69
2019-02-22T04:06:49.900Z,1024.72
2019-02-22T04:07:49.886Z,1024.76
2019-02-22T04:08:49.871Z,1024.83
2019-02-22T04:09:49.874Z,1024.81
2019-02-22T04:10:50.013Z,1024.86
2019-02-22T04:11:49.825Z,1024.83
2019-02-22T04:12:49.821Z,1024.85
2019-02-22T04:13:49.808Z,1024.81
2019-02-22T04:14:49.812Z,1024.84
2019-02-22T04:15:49.785Z,1024.91
2019-02-22T04:16:49.818Z,1024.90
2019-02-22T04:17:49.768Z,1024.94
2019-02-22T04:18:49.758Z,1024.99
2019-02-22T04:19:49.755Z,1024.97
2019-02-22T04:20:49.768Z,1024.97
2019-02-22T04:21:49.723Z,1025.05
2019-02-22T04:22:49.756Z,1025.06
2019-02-22T04:23:49.714Z,1025.09
2019-02-22T04:24:49.697Z,1025.11
2019-02-22T04:25:49.689Z,1025.15
2019-02-22T04:26:49.691Z,1025.18
2019-02-22T04:27:49.666Z,1025.10
2019-02-22T04:28:49.658Z,1025.11
2019-02-22T04:30:02.109Z,1025.08
2019-02-22T04:30:49.631Z,1025.19
2019-02-22T04:31:49.624Z,1025.17
2019-02-22T04:32:49.611Z,1025.22
2019-02-22T04:33:49.670Z,1025.23
2019-02-22T04:34:49.592Z,1025.26
2019-02-22T04:35:49.582Z,1025.36
2019-02-22T04:36:49.605Z,1025.33
2019-02-22T04:37:49.563Z,1025.31
2019-02-22T04:38:49.552Z,1025.40
2019-02-22T04:39:49.582Z,1025.39
2019-02-22T04:40:49.537Z,1025.44
2019-02-22T04:41:57.701Z,1025.40
2019-02-22T04:42:50.517Z,1025.41
2019-02-22T04:43:49.504Z,1025.47
2019-02-22T04:44:49.498Z,1025.49
2019-02-22T04:45:49.500Z,1025.52
2019-02-22T04:46:49.478Z,1025.53
2019-02-22T04:47:49.482Z,1025.52
2019-02-22T04:48:49.459Z,1025.54
2019-02-22T04:49:49.441Z,1025.51
2019-02-22T04:50:49.443Z,1025.52
2019-02-22T04:51:49.446Z,1025.47
2019-02-22T04:52:49.421Z,1025.50
2019-02-22T04:53:49.427Z,1025.46
2019-02-22T04:54:49.396Z,1025.46
2019-02-22T04:55:49.383Z,1025.44
2019-02-22T04:56:49.371Z,1025.49
2019-02-22T04:57:49.402Z,1025.50
2019-02-22T04:58:49.353Z,1025.49
2019-02-22T04:59:49.370Z,1025.45
2019-02-22T05:00:59.219Z,1025.51
2019-02-22T05:01:49.319Z,1025.52
2019-02-22T05:02:49.330Z,1025.58
2019-02-22T05:03:49.334Z,1025.58
2019-02-22T05:04:49.299Z,1025.57
2019-02-22T05:05:49.287Z,1025.57
2019-02-22T05:06:49.355Z,1025.60
2019-02-22T05:07:49.269Z,1025.64
2019-02-22T05:08:49.268Z,1025.62
2019-02-22T05:09:49.267Z,1025.65
2019-02-22T05:10:49.270Z,1025.69
2019-02-22T05:11:49.221Z,1025.74
2019-02-22T05:12:49.224Z,1025.74
2019-02-22T05:13:49.219Z,1025.76
2019-02-22T05:14:49.206Z,1025.74
2019-02-22T05:15:49.194Z,1025.84
2019-02-22T05:16:49.176Z,1025.83
2019-02-22T05:17:49.197Z,1025.79
2019-02-22T05:18:49.171Z,1025.86
2019-02-22T05:19:49.149Z,1025.89
2019-02-22T05:20:49.184Z,1025.95
2019-02-22T05:21:49.146Z,1025.97
2019-02-22T05:22:49.117Z,1026.00
2019-02-22T05:23:49.109Z,1025.98
2019-02-22T05:24:49.094Z,1026.01
2019-02-22T05:25:49.129Z,1026.03
2019-02-22T05:26:49.076Z,1026.07
2019-02-22T05:27:49.107Z,1026.09
2019-02-22T05:28:49.058Z,1026.02
2019-02-22T05:29:49.055Z,1026.03
2019-02-22T05:30:49.040Z,1026.10
2019-02-22T05:31:59.491Z,1026.07
2019-02-22T05:32:49.017Z,1026.11
2019-02-22T05:33:49.178Z,1026.15
2019-02-22T05:34:49.001Z,1026.13
2019-02-22T05:35:48.983Z,1026.11
2019-02-22T05:36:48.974Z,1026.08
2019-02-22T05:37:48.966Z,1026.06
2019-02-22T05:38:48.954Z,1026.07
2019-02-22T05:39:48.973Z,1026.00
2019-02-22T05:40:48.943Z,1025.96
2019-02-22T05:41:48.936Z,1025.99
2019-02-22T05:42:49.037Z,1025.93
2019-02-22T05:43:48.902Z,1026.00
2019-02-22T05:44:48.893Z,1025.99
2019-02-22T05:45:48.927Z,1026.00
2019-02-22T05:46:59.663Z,1025.99
2019-02-22T05:47:49.873Z,1025.99
2019-02-22T05:48:48.878Z,1026.02
2019-02-22T05:49:48.849Z,1026.02
2019-02-22T05:50:48.832Z,1026.07
2019-02-22T05:51:48.871Z,1026.09
2019-02-22T05:52:48.811Z,1026.13
2019-02-22T05:53:48.812Z,1026.11
2019-02-22T05:54:48.801Z,1026.14
2019-02-22T05:55:48.822Z,1026.14
2019-02-22T05:56:48.795Z,1026.18
2019-02-22T05:57:48.776Z,1026.20
2019-02-22T05:58:48.760Z,1026.23
2019-02-22T05:59:48.850Z,1026.27
2019-02-22T06:00:48.734Z,1026.29
2019-02-22T06:01:48.728Z,1026.35
2019-02-22T06:02:59.224Z,1026.39
2019-02-22T06:03:48.701Z,1026.42
2019-02-22T06:04:48.700Z,1026.45
2019-02-22T06:05:49.694Z,1026.43
2019-02-22T06:06:48.697Z,1026.45
2019-02-22T06:07:48.663Z,1026.53
2019-02-22T06:08:48.743Z,1026.56
2019-02-22T06:09:48.646Z,1026.53
2019-02-22T06:10:48.634Z,1026.53
2019-02-22T06:11:48.625Z,1026.46
2019-02-22T06:12:48.614Z,1026.51
2019-02-22T06:13:48.604Z,1026.52
2019-02-22T06:14:48.640Z,1026.52
2019-02-22T06:15:48.584Z,1026.61
2019-02-22T06:16:48.619Z,1026.65
2019-02-22T06:17:48.567Z,1026.63
2019-02-22T06:18:48.576Z,1026.62
2019-02-22T06:19:48.597Z,1026.68
2019-02-22T06:20:48.569Z,1026.69
2019-02-22T06:21:48.522Z,1026.66
2019-02-22T06:22:48.524Z,1026.72
2019-02-22T06:23:48.503Z,1026.72
2019-02-22T06:24:48.500Z,1026.76
2019-02-22T06:25:48.513Z,1026.79
2019-02-22T06:26:48.650Z,1026.81
2019-02-22T06:27:48.464Z,1026.83
2019-02-22T06:28:48.454Z,1026.85
2019-02-22T06:29:49.729Z,1026.85
2019-02-22T06:30:48.438Z,1026.87
2019-02-22T06:31:48.422Z,1026.80
2019-02-22T06:32:48.424Z,1026.90
2019-02-22T06:33:58.917Z,1026.86
2019-02-22T06:34:48.396Z,1026.91
2019-02-22T06:35:48.389Z,1026.96
2019-02-22T06:37:00.824Z,1027.01
2019-02-22T06:37:49.435Z,1027.01
2019-02-22T06:38:48.362Z,1027.09
2019-02-22T06:39:48.350Z,1027.09
2019-02-22T06:40:48.447Z,1027.08
2019-02-22T06:41:48.332Z,1027.15
2019-02-22T06:42:48.313Z,1027.12
2019-02-22T06:43:48.354Z,1027.23
2019-02-22T06:44:48.301Z,1027.25
2019-02-22T06:45:48.332Z,1027.21
2019-02-22T06:46:48.279Z,1027.26
2019-02-22T06:47:48.263Z,1027.26
2019-02-22T06:48:48.254Z,1027.28
2019-02-22T06:49:48.281Z,1027.35
2019-02-22T06:50:48.237Z,1027.32
2019-02-22T06:51:48.234Z,1027.30
2019-02-22T06:52:48.215Z,1027.32
2019-02-22T06:53:48.203Z,1027.35
2019-02-22T06:54:48.196Z,1027.28
2019-02-22T06:55:48.228Z,1027.29
2019-02-22T06:56:48.184Z,1027.29
2019-02-22T06:57:48.206Z,1027.32
2019-02-22T06:58:48.160Z,1027.34
2019-02-22T06:59:48.511Z,1027.37
2019-02-22T07:00:48.139Z,1027.35
2019-02-22T07:01:50.051Z,1027.38
2019-02-22T07:02:48.140Z,1027.33
2019-02-22T07:03:48.118Z,1027.39
2019-02-22T07:04:58.350Z,1027.40
2019-02-22T07:05:48.094Z,1027.40
2019-02-22T07:06:48.074Z,1027.44
2019-02-22T07:07:48.111Z,1027.41
2019-02-22T07:08:48.092Z,1027.47
2019-02-22T07:09:48.088Z,1027.46
2019-02-22T07:10:48.120Z,1027.48
2019-02-22T07:11:48.037Z,1027.59
2019-02-22T07:12:56.525Z,1027.58
2019-02-22T07:13:49.100Z,1027.62
2019-02-22T07:14:47.989Z,1027.63
2019-02-22T07:15:48.033Z,1027.57
2019-02-22T07:16:48.174Z,1027.61
2019-02-22T07:17:47.965Z,1027.65
2019-02-22T07:18:49.894Z,1027.65
2019-02-22T07:19:48.237Z,1027.65
2019-02-22T07:20:48.046Z,1027.69
2019-02-22T07:21:52.450Z,1027.74
2019-02-22T07:22:48.909Z,1027.73
2019-02-22T07:23:47.899Z,1027.72
2019-02-22T07:24:48.079Z,1027.73
2019-02-22T07:25:48.070Z,1027.77
2019-02-22T07:26:48.075Z,1027.70
2019-02-22T07:27:47.858Z,1027.78
2019-02-22T07:28:47.848Z,1027.69
2019-02-22T07:29:48.071Z,1027.67
2019-02-22T07:30:48.075Z,1027.70
2019-02-22T07:31:48.078Z,1027.71
2019-02-22T07:32:48.165Z,1027.68
2019-02-22T07:33:47.806Z,1027.69
2019-02-22T07:34:47.801Z,1027.67
2019-02-22T07:35:57.804Z,1027.72
2019-02-22T07:36:48.186Z,1027.76
2019-02-22T07:37:47.760Z,1027.82
2019-02-22T07:38:48.064Z,1027.76
2019-02-22T07:39:47.776Z,1027.84
2019-02-22T07:40:48.053Z,1027.82
2019-02-22T07:41:48.044Z,1027.83
2019-02-22T07:42:47.708Z,1027.87
2019-02-22T07:43:47.705Z,1027.82
2019-02-22T07:44:47.755Z,1027.81
2019-02-22T07:45:47.683Z,1027.84
2019-02-22T07:46:47.670Z,1027.79
2019-02-22T07:47:47.662Z,1027.80
2019-02-22T07:48:47.646Z,1027.83
2019-02-22T07:49:47.664Z,1027.83
2019-02-22T07:50:56.881Z,1027.83
2019-02-22T07:51:48.617Z,1027.86
2019-02-22T07:52:47.760Z,1027.88
2019-02-22T07:53:47.600Z,1027.89
2019-02-22T07:54:47.589Z,1027.93
2019-02-22T07:55:47.606Z,1027.90
2019-02-22T07:56:47.565Z,1027.90
2019-02-22T07:57:47.560Z,1027.98
2019-02-22T07:58:47.547Z,1027.99
2019-02-22T07:59:47.538Z,1028.06
2019-02-22T08:00:47.524Z,1028.08
2019-02-22T08:01:48.292Z,1028.11
2019-02-22T08:02:47.502Z,1028.10
2019-02-22T08:03:47.494Z,1028.14
2019-02-22T08:04:47.498Z,1028.12
2019-02-22T08:05:47.490Z,1028.13
2019-02-22T08:07:00.280Z,1028.16
2019-02-22T08:07:54.450Z,1028.24
2019-02-22T08:08:48.430Z,1028.24
2019-02-22T08:09:47.430Z,1028.27
2019-02-22T08:10:47.562Z,1028.31
2019-02-22T08:11:48.161Z,1028.34
2019-02-22T08:12:47.598Z,1028.38
2019-02-22T08:13:47.397Z,1028.35
2019-02-22T08:14:47.377Z,1028.40
2019-02-22T08:15:47.380Z,1028.37
2019-02-22T08:16:47.361Z,1028.43
2019-02-22T08:17:47.353Z,1028.47
2019-02-22T08:18:47.383Z,1028.44
2019-02-22T08:19:55.534Z,1028.42
2019-02-22T08:20:47.320Z,1028.45
2019-02-22T08:21:54.311Z,1028.45
2019-02-22T08:22:47.350Z,1028.53
2019-02-22T08:23:54.383Z,1028.53
2019-02-22T08:24:47.276Z,1028.47
2019-02-22T08:25:47.359Z,1028.51
2019-02-22T08:26:47.253Z,1028.53
2019-02-22T08:27:54.492Z,1028.54
2019-02-22T08:28:47.235Z,1028.52
2019-02-22T08:29:47.294Z,1028.54
2019-02-22T08:30:47.222Z,1028.64
2019-02-22T08:31:47.204Z,1028.63
2019-02-22T08:32:48.108Z,1028.57
2019-02-22T08:33:47.462Z,1028.55
2019-02-22T08:34:47.215Z,1028.51
2019-02-22T08:35:47.196Z,1028.48
2019-02-22T08:36:47.156Z,1028.50
2019-02-22T08:37:47.147Z,1028.47
2019-02-22T08:38:47.135Z,1028.47
2019-02-22T08:39:58.304Z,1028.48
2019-02-22T08:40:48.160Z,1028.45
2019-02-22T08:41:47.106Z,1028.44
2019-02-22T08:42:47.087Z,1028.47
2019-02-22T08:43:47.078Z,1028.48
2019-02-22T08:44:47.074Z,1028.47
2019-02-22T08:45:47.064Z,1028.46
2019-02-22T08:46:47.061Z,1028.47
2019-02-22T08:47:47.038Z,1028.53
2019-02-22T08:48:47.063Z,1028.51
2019-02-22T08:49:47.011Z,1028.52
2019-02-22T08:50:47.009Z,1028.56
2019-02-22T08:51:47.052Z,1028.51
2019-02-22T08:52:47.082Z,1028.61
2019-02-22T08:53:46.966Z,1028.58
2019-02-22T08:54:57.933Z,1028.60
2019-02-22T08:55:46.943Z,1028.65
2019-02-22T08:56:46.938Z,1028.68
2019-02-22T08:57:53.928Z,1028.64
2019-02-22T08:58:46.911Z,1028.63
2019-02-22T08:59:46.915Z,1028.65
2019-02-22T09:00:47.021Z,1028.65
2019-02-22T09:01:47.116Z,1028.63
2019-02-22T09:02:46.882Z,1028.67
2019-02-22T09:03:50.564Z,1028.66
2019-02-22T09:04:47.065Z,1028.73
2019-02-22T09:05:46.842Z,1028.68
2019-02-22T09:06:47.151Z,1028.64
2019-02-22T09:07:47.084Z,1028.70
2019-02-22T09:08:47.115Z,1028.72
2019-02-22T09:09:46.813Z,1028.74
2019-02-22T09:10:46.782Z,1028.73
2019-02-22T09:11:46.787Z,1028.63
2019-02-22T09:12:47.141Z,1028.76
2019-02-22T09:13:46.753Z,1028.74
2019-02-22T09:14:46.742Z,1028.74
2019-02-22T09:15:46.732Z,1028.71
2019-02-22T09:16:47.042Z,1028.71
2019-02-22T09:17:46.707Z,1028.70
2019-02-22T09:18:47.049Z,1028.76
2019-02-22T09:19:46.688Z,1028.73
2019-02-22T09:20:46.679Z,1028.75
2019-02-22T09:21:46.664Z,1028.78
2019-02-22T09:22:46.669Z,1028.75
2019-02-22T09:23:47.381Z,1028.85
2019-02-22T09:24:46.665Z,1028.88
2019-02-22T09:25:46.613Z,1028.88
2019-02-22T09:26:46.610Z,1028.95
2019-02-22T09:27:46.590Z,1028.96
2019-02-22T09:28:57.117Z,1028.98
2019-02-22T09:29:57.831Z,1029.03
2019-02-22T09:30:47.601Z,1029.02
2019-02-22T09:31:46.550Z,1029.01
2019-02-22T09:32:46.541Z,1028.99
2019-02-22T09:33:46.535Z,1029.05
2019-02-22T09:34:46.519Z,1029.05
2019-02-22T09:35:46.529Z,1029.04
2019-02-22T09:36:46.695Z,1029.11
2019-02-22T09:37:46.487Z,1029.10
2019-02-22T09:38:46.477Z,1029.18
2019-02-22T09:39:46.470Z,1029.21
2019-02-22T09:40:46.455Z,1029.16
2019-02-22T09:41:46.456Z,1029.18
2019-02-22T09:42:46.606Z,1029.20
2019-02-22T09:43:54.742Z,1029.26
2019-02-22T09:44:47.406Z,1029.25
2019-02-22T09:45:46.413Z,1029.23
2019-02-22T09:46:46.417Z,1029.25
2019-02-22T09:47:46.913Z,1029.25
2019-02-22T09:48:46.441Z,1029.27
2019-02-22T09:49:46.352Z,1029.33
2019-02-22T09:50:46.341Z,1029.38
2019-02-22T09:51:46.336Z,1029.36
2019-02-22T09:52:46.326Z,1029.37
2019-02-22T09:53:46.400Z,1029.33
2019-02-22T09:54:46.344Z,1029.29
2019-02-22T09:55:46.292Z,1029.35
2019-02-22T09:56:46.279Z,1029.36
2019-02-22T09:57:46.273Z,1029.33
2019-02-22T09:58:46.254Z,1029.32
2019-02-22T09:59:56.995Z,1029.37
2019-02-22T10:00:46.234Z,1029.33
2019-02-22T10:01:46.225Z,1029.33
2019-02-22T10:02:46.209Z,1029.32
2019-02-22T10:03:46.250Z,1029.34
2019-02-22T10:04:54.682Z,1029.35
2019-02-22T10:05:47.360Z,1029.39
2019-02-22T10:06:46.180Z,1029.41
2019-02-22T10:07:46.158Z,1029.38
2019-02-22T10:08:46.146Z,1029.39
2019-02-22T10:09:46.144Z,1029.43
2019-02-22T10:10:46.129Z,1029.43
2019-02-22T10:11:46.167Z,1029.43
2019-02-22T10:12:46.105Z,1029.43
2019-02-22T10:13:46.099Z,1029.46
2019-02-22T10:14:46.099Z,1029.45
2019-02-22T10:15:46.081Z,1029.50
2019-02-22T10:16:46.070Z,1029.52
2019-02-22T10:17:46.075Z,1029.50
2019-02-22T10:18:46.040Z,1029.47
2019-02-22T10:19:46.051Z,1029.51
2019-02-22T10:20:46.031Z,1029.46
2019-02-22T10:21:46.034Z,1029.48
2019-02-22T10:22:46.155Z,1029.49
2019-02-22T10:23:46.165Z,1029.48
2019-02-22T10:24:45.987Z,1029.49
2019-02-22T10:25:45.965Z,1029.50
2019-02-22T10:26:45.973Z,1029.50
2019-02-22T10:27:45.993Z,1029.57
2019-02-22T10:28:45.942Z,1029.55
2019-02-22T10:29:45.968Z,1029.51
2019-02-22T10:30:56.732Z,1029.49
2019-02-22T10:31:45.910Z,1029.46
2019-02-22T10:32:45.895Z,1029.53
2019-02-22T10:33:45.888Z,1029.49
2019-02-22T10:34:45.875Z,1029.45
2019-02-22T10:35:45.913Z,1029.43
2019-02-22T10:36:45.851Z,1029.43
2019-02-22T10:37:45.843Z,1029.46
2019-02-22T10:38:45.835Z,1029.44
2019-02-22T10:39:45.826Z,1029.47
2019-02-22T10:40:45.812Z,1029.44
2019-02-22T10:41:45.844Z,1029.44
2019-02-22T10:42:45.787Z,1029.43
2019-02-22T10:43:45.785Z,1029.42
2019-02-22T10:44:45.773Z,1029.45
2019-02-22T10:45:45.763Z,1029.46
2019-02-22T10:46:45.774Z,1029.44
2019-02-22T10:47:45.803Z,1029.44
2019-02-22T10:48:45.726Z,1029.45
2019-02-22T10:49:45.717Z,1029.46
2019-02-22T10:50:45.707Z,1029.42
2019-02-22T10:51:45.704Z,1029.39
2019-02-22T10:52:45.690Z,1029.43
2019-02-22T10:53:45.846Z,1029.39
2019-02-22T10:54:45.687Z,1029.43
2019-02-22T10:55:45.663Z,1029.41
2019-02-22T10:56:45.649Z,1029.41
2019-02-22T10:57:45.641Z,1029.41
2019-02-22T10:58:45.632Z,1029.38
2019-02-22T10:59:46.651Z,1029.38
2019-02-22T11:00:45.623Z,1029.46
2019-02-22T11:01:56.531Z,1029.45
2019-02-22T11:02:45.587Z,1029.43
2019-02-22T11:03:45.574Z,1029.44
2019-02-22T11:04:45.567Z,1029.41
2019-02-22T11:05:45.598Z,1029.42
2019-02-22T11:06:45.560Z,1029.41
2019-02-22T11:07:45.551Z,1029.46
2019-02-22T11:08:45.525Z,1029.41
2019-02-22T11:09:45.515Z,1029.39
2019-02-22T11:10:45.512Z,1029.41
2019-02-22T11:11:45.537Z,1029.42
2019-02-22T11:12:45.486Z,1029.28
2019-02-22T11:13:45.487Z,1028.96
2019-02-22T11:14:45.477Z,1028.92
2019-02-22T11:15:45.475Z,1029.08
2019-02-22T11:16:45.444Z,1029.30
2019-02-22T11:17:45.474Z,1029.27
2019-02-22T11:18:45.421Z,1029.33
2019-02-22T11:19:45.410Z,1029.36
2019-02-22T11:20:45.399Z,1029.36
2019-02-22T11:21:45.390Z,1029.42
2019-02-22T11:22:45.395Z,1029.33
2019-02-22T11:23:45.421Z,1029.41
2019-02-22T11:24:45.362Z,1029.43
2019-02-22T11:25:45.358Z,1029.46
2019-02-22T11:26:45.342Z,1029.47
2019-02-22T11:27:45.326Z,1029.49
2019-02-22T11:28:45.315Z,1029.54
2019-02-22T11:29:45.343Z,1029.51
2019-02-22T11:30:45.309Z,1029.50
2019-02-22T11:31:45.288Z,1029.51
2019-02-22T11:32:55.238Z,1029.44
2019-02-22T11:33:45.270Z,1029.44
2019-02-22T11:34:45.258Z,1029.45
2019-02-22T11:35:45.290Z,1029.43
2019-02-22T11:36:45.237Z,1029.47
2019-02-22T11:37:45.222Z,1029.44
2019-02-22T11:38:45.214Z,1029.46
2019-02-22T11:39:45.199Z,1029.44
2019-02-22T11:40:45.191Z,1029.45
2019-02-22T11:41:52.602Z,1029.40
2019-02-22T11:42:45.167Z,1029.45
2019-02-22T11:43:52.149Z,1029.41
2019-02-22T11:44:45.149Z,1029.37
2019-02-22T11:45:45.135Z,1029.39
2019-02-22T11:46:45.127Z,1029.38
2019-02-22T11:47:45.167Z,1029.36
2019-02-22T11:48:45.113Z,1029.37
2019-02-22T11:49:45.094Z,1029.37
2019-02-22T11:50:45.091Z,1029.37
2019-02-22T11:51:45.074Z,1029.28
2019-02-22T11:52:45.071Z,1029.35
2019-02-22T11:53:45.167Z,1029.39
2019-02-22T11:54:45.049Z,1029.29
2019-02-22T11:55:45.052Z,1029.32
2019-02-22T11:56:45.021Z,1029.32
2019-02-22T11:57:45.051Z,1029.32
2019-02-22T11:58:45.005Z,1029.37
2019-02-22T11:59:45.029Z,1029.30
2019-02-22T12:00:44.991Z,1029.27
2019-02-22T12:01:44.977Z,1029.28
2019-02-22T12:02:45.616Z,1029.29
2019-02-22T12:03:44.960Z,1029.29
2019-02-22T12:04:44.963Z,1029.31
2019-02-22T12:05:44.977Z,1029.35